»·PEaware :: UAL766 KSFO-KPDX

UAL766 :: KSFO-KPDX

FLIGHT INFORMATION

Flight Status: Arrived
Operator:
United Airlines
More flights by this operator :: More flights under this callsign
Pilot: Alfredo R. (12181)
Aircraft: BOEING 737-800
(B738)
More flights by this aircraft type
Origin: KSFO San Francisco Intl
United States
Destination: KPDX Portland Intl
United States
More flights between these airports :: More routes between these airports
Route: TRUKN2 GRTFL MACHU TMBRS2
File this flight plan on PilotEdge
Remarks:
Altitude:
(Current/Filed)
36,000ft
Speed:
(Current/Filed)
425kts
Departed: 06-Nov-18 08:07 PM
Arrived: 06-Nov-18 09:35 PM
Distance/Time
Traveled:
478nm/1:28
Distance/Time
To Go:
Arrived

Flight Plot

Page will automatically refresh every two minutes.


Map Options




Map Legend


Flown Route
Filed Route
Departure Airport
Arrival Airport
Navaid (VOR, NDB)
Fix

Horizontal Profiles

Position Reports

Time Latitude Longitude Heading Altitude Ground
Speed
06-Nov-18 19:42 37.619187 -122.383519 291 31ft 0kts
06-Nov-18 19:43 37.619187 -122.383519 291 31ft 0kts
06-Nov-18 19:44 37.619187 -122.383519 291 31ft 0kts
06-Nov-18 19:45 37.619187 -122.383519 291 31ft 0kts
06-Nov-18 19:46 37.619187 -122.383519 291 31ft 0kts
06-Nov-18 19:47 37.619187 -122.383519 291 31ft 0kts
06-Nov-18 19:48 37.619187 -122.383519 291 30ft 0kts
06-Nov-18 19:49 37.619187 -122.383519 291 30ft 0kts
06-Nov-18 19:50 37.619187 -122.383519 291 30ft 0kts
06-Nov-18 19:51 37.619187 -122.383519 291 30ft 0kts
06-Nov-18 19:52 37.619187 -122.383519 291 30ft 0kts
06-Nov-18 19:53 37.619187 -122.383519 291 31ft 0kts
06-Nov-18 19:54 37.619105 -122.383251 291 31ft 2kts
06-Nov-18 19:55 37.618699 -122.383094 27 31ft 1kts
06-Nov-18 19:56 37.618788 -122.383019 29 30ft 7kts
06-Nov-18 19:57 37.619189 -122.382739 29 30ft 0kts
06-Nov-18 19:58 37.619189 -122.382739 29 30ft 0kts
06-Nov-18 19:59 37.619189 -122.382739 29 30ft 0kts
06-Nov-18 20:00 37.619189 -122.382739 29 30ft 0kts
06-Nov-18 20:01 37.619608 -122.382280 73 30ft 4kts
06-Nov-18 20:02 37.618950 -122.380420 127 30ft 8kts
06-Nov-18 20:03 37.616488 -122.379733 206 30ft 11kts
06-Nov-18 20:04 37.613834 -122.381477 208 31ft 11kts
06-Nov-18 20:05 37.610726 -122.383541 208 31ft 14kts
06-Nov-18 20:06 37.608496 -122.383946 118 30ft 1kts
06-Nov-18 20:07 37.608469 -122.383879 116 30ft 0kts
06-Nov-18 20:08 37.608458 -122.383851 116 30ft 1kts
06-Nov-18 20:09 37.609148 -122.382090 27 29ft 5kts
06-Nov-18 20:10 37.613004 -122.379565 27 30ft 86kts
06-Nov-18 20:11 37.648022 -122.352925 51 1235ft 173kts
06-Nov-18 20:12 37.677659 -122.293635 57 2071ft 235kts
06-Nov-18 20:13 37.716804 -122.226804 29 4086ft 257kts
06-Nov-18 20:14 37.780177 -122.215145 356 6474ft 262kts
06-Nov-18 20:15 37.853797 -122.218008 356 9077ft 273kts
06-Nov-18 20:16 37.932501 -122.220187 356 11049ft 303kts
06-Nov-18 20:17 38.017419 -122.222437 356 13715ft 313kts
06-Nov-18 20:18 38.105198 -122.224769 355 16516ft 325kts
06-Nov-18 20:19 38.189178 -122.227015 355 18943ft 336kts
06-Nov-18 20:20 38.279568 -122.229436 354 21259ft 347kts
06-Nov-18 20:21 38.375594 -122.233048 350 23392ft 356kts
06-Nov-18 20:22 38.474932 -122.244385 350 24797ft 364kts
06-Nov-18 20:23 38.575994 -122.255301 350 26229ft 368kts
06-Nov-18 20:24 38.678981 -122.266479 350 27373ft 375kts
06-Nov-18 20:25 38.783441 -122.277798 350 28379ft 383kts
06-Nov-18 20:26 38.890036 -122.289345 350 29426ft 387kts
06-Nov-18 20:27 38.996545 -122.300877 350 30587ft 384kts
06-Nov-18 20:28 39.102154 -122.312327 349 31639ft 383kts
06-Nov-18 20:29 39.207767 -122.323777 349 32654ft 381kts
06-Nov-18 20:30 39.313042 -122.335196 349 33531ft 381kts
06-Nov-18 20:31 39.417952 -122.346561 349 34395ft 379kts
06-Nov-18 20:32 39.522428 -122.357909 349 35180ft 378kts
06-Nov-18 20:33 39.626879 -122.369228 349 35897ft 377kts
06-Nov-18 20:34 39.732322 -122.380719 349 36056ft 392kts
06-Nov-18 20:35 39.842081 -122.392626 349 36064ft 410kts
06-Nov-18 20:36 39.956960 -122.405061 349 36058ft 419kts
06-Nov-18 20:37 40.072634 -122.417577 349 36055ft 419kts
06-Nov-18 20:38 40.188021 -122.430092 349 36062ft 419kts
06-Nov-18 20:39 40.303230 -122.442577 349 36061ft 419kts
06-Nov-18 20:40 40.418991 -122.455152 349 36060ft 419kts
06-Nov-18 20:41 40.534658 -122.467700 349 36059ft 419kts
06-Nov-18 20:42 40.650062 -122.480224 349 36059ft 419kts
06-Nov-18 20:43 40.765723 -122.492770 349 36057ft 419kts
06-Nov-18 20:44 40.880802 -122.505261 349 36147ft 419kts
06-Nov-18 20:45 40.996239 -122.517792 349 36187ft 419kts
06-Nov-18 20:46 41.110087 -122.530147 349 36185ft 419kts
06-Nov-18 20:47 41.225013 -122.542619 349 36187ft 419kts
06-Nov-18 20:48 41.340325 -122.555129 349 36187ft 418kts
06-Nov-18 20:49 41.455934 -122.567686 349 36186ft 418kts
06-Nov-18 20:50 41.571579 -122.578674 350 36195ft 419kts
06-Nov-18 20:51 41.687817 -122.586019 350 36211ft 420kts
06-Nov-18 20:52 41.803512 -122.593421 350 36209ft 415kts
06-Nov-18 20:53 41.899451 -122.599639 350 36210ft 417kts
06-Nov-18 20:54 42.014343 -122.607153 350 36209ft 416kts
06-Nov-18 20:55 42.149011 -122.616031 350 36243ft 417kts
06-Nov-18 20:56 42.245081 -122.622403 350 36241ft 416kts
06-Nov-18 20:57 42.378260 -122.631258 349 36240ft 412kts
06-Nov-18 20:58 42.473550 -122.637654 349 36239ft 411kts
06-Nov-18 20:59 42.585250 -122.645171 349 36236ft 412kts
06-Nov-18 21:00 42.699469 -122.652899 348 36248ft 410kts
06-Nov-18 21:01 42.811863 -122.660530 348 36247ft 402kts
06-Nov-18 21:02 42.923915 -122.668273 348 36247ft 404kts
06-Nov-18 21:03 43.035579 -122.675969 348 36283ft 404kts
06-Nov-18 21:04 43.147513 -122.683680 348 36289ft 404kts
06-Nov-18 21:05 43.259275 -122.691395 348 36288ft 404kts
06-Nov-18 21:06 43.367120 -122.698660 347 36101ft 382kts
06-Nov-18 21:07 43.470379 -122.705688 347 34631ft 367kts
06-Nov-18 21:08 43.572848 -122.712896 347 33081ft 372kts
06-Nov-18 21:09 43.675839 -122.720144 347 31534ft 376kts
06-Nov-18 21:10 43.779746 -122.727363 347 29963ft 372kts
06-Nov-18 21:11 43.881921 -122.734481 347 28364ft 367kts
06-Nov-18 21:12 43.982308 -122.741469 347 26745ft 357kts
06-Nov-18 21:13 44.079550 -122.748247 347 25169ft 348kts
06-Nov-18 21:14 44.174651 -122.751714 355 23805ft 350kts
06-Nov-18 21:15 44.269561 -122.741503 353 22660ft 341kts
06-Nov-18 21:16 44.361605 -122.732356 353 21496ft 331kts
06-Nov-18 21:17 44.452288 -122.723410 354 20337ft 327kts
06-Nov-18 21:18 44.539496 -122.714654 355 19137ft 309kts
06-Nov-18 21:19 44.622425 -122.706452 355 17979ft 306kts
06-Nov-18 21:20 44.707339 -122.697990 356 16786ft 308kts
06-Nov-18 21:21 44.788329 -122.689708 356 15559ft 284kts
06-Nov-18 21:22 44.866943 -122.681838 357 14363ft 286kts
06-Nov-18 21:23 44.945357 -122.673970 358 12989ft 283kts
06-Nov-18 21:24 45.023242 -122.666099 359 11486ft 280kts
06-Nov-18 21:25 45.099715 -122.658342 0 9992ft 277kts
06-Nov-18 21:26 45.174798 -122.650681 0 8538ft 275kts
06-Nov-18 21:27 45.244902 -122.642523 9 7357ft 268kts
06-Nov-18 21:28 45.301867 -122.596616 29 6451ft 252kts
06-Nov-18 21:29 45.355030 -122.548139 28 5498ft 236kts
06-Nov-18 21:30 45.395795 -122.483120 54 4557ft 233kts
06-Nov-18 21:31 45.427416 -122.409907 54 3636ft 215kts
06-Nov-18 21:32 45.457717 -122.340933 51 2998ft 202kts
06-Nov-18 21:33 45.499586 -122.355317 305 3015ft 187kts
06-Nov-18 21:34 45.523597 -122.413365 301 2450ft 156kts
06-Nov-18 21:35 45.543715 -122.464777 301 1638ft 136kts
06-Nov-18 21:36 45.562335 -122.512285 300 938ft 138kts
06-Nov-18 21:37 45.580760 -122.559538 299 219ft 139kts
06-Nov-18 21:38 45.592007 -122.589495 279 24ft 30kts
06-Nov-18 21:39 45.591296 -122.591959 127 24ft 6kts
06-Nov-18 21:40 45.590224 -122.590912 211 24ft 3kts
06-Nov-18 21:41 45.590070 -122.591037 209 24ft 0kts
06-Nov-18 21:42 45.590070 -122.591037 209 24ft 0kts
06-Nov-18 21:43 45.590070 -122.591037 209 24ft 0kts
06-Nov-18 21:44 45.590070 -122.591037 209 24ft 0kts

Navigation Log

Ident Type
Flight plan parsing failed, navigation log unavailable